Time;durP1;ratioP1;P1;durP2;ratioP2;P2;SDS_P1;SDS_P2;PMS_P1;PMS_P2;Temp;Humidity;BMP_temperature;BMP_pressure;BME280_temperature;BME280_humidity;BME280_pressure;Samples;Min_cycle;Max_cycle;Signal;HPM_P1;HPM_P2
2023/05/27 00:01:07;;;;;;;10.55;3.20;;;;;;;13.65;52.74;102783.47;6247355;22;20014;-88
2023/05/27 00:03:32;;;;;;;12.27;3.72;;;;;;;13.65;53.26;102792.34;6272761;22;20450;-88
2023/05/27 00:05:58;;;;;;;12.98;4.05;;;;;;;13.46;53.46;102785.66;6246429;22;20014;-89
2023/05/27 00:08:23;;;;;;;8.95;3.00;;;;;;;13.46;54.26;102788.31;6245668;22;20031;-89
2023/05/27 00:10:48;;;;;;;12.55;3.40;;;;;;;13.43;53.55;102793.69;6273401;22;20335;-89
2023/05/27 00:13:14;;;;;;;8.50;3.50;;;;;;;13.43;53.64;102791.03;6246791;22;19995;-89
2023/05/27 00:15:40;;;;;;;9.68;3.08;;;;;;;13.25;53.72;102776.38;6245707;22;20077;-88
2023/05/27 00:18:06;;;;;;;8.82;3.45;;;;;;;13.35;53.68;102791.22;6272123;22;20071;-89
2023/05/27 00:20:32;;;;;;;10.68;3.50;;;;;;;13.30;53.79;102782.47;6273066;22;20029;-90
2023/05/27 00:22:59;;;;;;;9.65;3.20;;;;;;;13.32;53.71;102779.75;6246832;22;20019;-88
2023/05/27 00:25:25;;;;;;;15.63;3.38;;;;;;;13.36;53.87;102794.75;6272377;22;20087;-88
2023/05/27 00:27:50;;;;;;;11.88;3.20;;;;;;;13.24;54.01;102778.16;6273485;22;20378;-88
2023/05/27 00:30:16;;;;;;;14.55;4.05;;;;;;;13.22;54.16;102787.91;6246211;22;20099;-88
2023/05/27 00:32:42;;;;;;;9.20;3.25;;;;;;;13.13;54.34;102781.88;6273131;22;20011;-88
2023/05/27 00:35:08;;;;;;;12.20;3.58;;;;;;;13.18;54.18;102790.63;6245417;22;20014;-88
2023/05/27 00:37:33;;;;;;;9.52;3.22;;;;;;;13.12;54.71;102773.03;6272300;22;20007;-89
2023/05/27 00:39:58;;;;;;;9.05;3.25;;;;;;;13.12;54.17;102767.72;6271979;22;20332;-88
2023/05/27 00:42:24;;;;;;;10.40;3.50;;;;;;;12.98;54.17;102759.16;6273321;22;20007;-89
2023/05/27 00:44:49;;;;;;;10.27;3.35;;;;;;;13.03;54.72;102778.53;6271804;22;20000;-90
2023/05/27 00:47:15;;;;;;;9.77;3.45;;;;;;;12.93;54.63;102774.31;6245086;22;20006;-88
2023/05/27 00:49:42;;;;;;;11.77;3.50;;;;;;;12.95;55.04;102780.47;6272282;22;20026;-89
2023/05/27 00:52:07;;;;;;;13.65;3.67;;;;;;;12.93;54.95;102785.81;6273535;22;20022;-88
2023/05/27 00:54:32;;;;;;;12.15;3.47;;;;;;;12.84;56.77;102763.88;6272342;22;20443;-88
2023/05/27 00:56:58;;;;;;;6.90;2.75;;;;;;;12.90;54.91;102771.72;6272549;22;20138;-89
2023/05/27 00:59:23;;;;;;;12.57;3.20;;;;;;;12.74;55.39;102764.03;6245440;22;20007;-89
2023/05/27 01:01:49;;;;;;;12.00;3.22;;;;;;;12.67;55.50;102767.69;6272599;22;20331;-88
2023/05/27 01:04:15;;;;;;;10.93;3.30;;;;;;;12.70;55.69;102772.97;6245357;22;20046;-88
2023/05/27 01:07:03;;;;;;;11.82;3.75;;;;;;;12.57;55.92;102762.59;6245571;22;20004;-88
2023/05/27 01:09:50;;;;;;;12.85;3.38;;;;;;;12.61;56.14;102775.78;6244502;22;20090;-89
2023/05/27 01:12:34;;;;;;;10.50;2.97;;;;;;;12.57;55.78;102759.94;6244937;22;20435;-88
2023/05/27 01:15:02;;;;;;;13.85;3.78;;;;;;;12.54;55.94;102765.28;6271513;22;20179;-88
2023/05/27 01:17:31;;;;;;;10.73;3.42;;;;;;;12.49;56.32;102768.00;6272843;22;20027;-88
2023/05/27 01:19:59;;;;;;;8.77;3.05;;;;;;;12.41;56.43;102759.34;6245446;22;20439;-88
2023/05/27 01:22:31;;;;;;;10.95;3.47;;;;;;;12.53;56.26;102772.38;6246030;22;20035;-88
2023/05/27 01:24:57;;;;;;;9.90;3.53;;;;;;;12.41;56.51;102746.94;6244987;22;20451;-88
2023/05/27 01:27:24;;;;;;;9.23;3.75;;;;;;;12.37;56.61;102744.38;6245809;22;20018;-88
2023/05/27 01:29:50;;;;;;;8.73;3.30;;;;;;;12.43;56.39;102761.03;6244061;22;20010;-88
2023/05/27 01:32:48;;;;;;;8.00;3.38;;;;;;;12.40;56.45;102753.16;6272647;22;20035;-88
2023/05/27 01:35:29;;;;;;;9.85;3.40;;;;;;;12.31;56.30;102749.75;6272550;22;20428;-88
2023/05/27 01:37:58;;;;;;;8.40;3.15;;;;;;;12.26;57.02;102760.44;6271999;22;20420;-88
2023/05/27 01:40:25;;;;;;;7.65;3.05;;;;;;;12.18;57.46;102763.25;6271254;22;20027;-88
2023/05/27 01:42:50;;;;;;;11.38;3.97;;;;;;;12.00;58.35;102753.78;6272498;22;20018;-88
2023/05/27 01:45:16;;;;;;;15.77;4.15;;;;;;;11.90;57.86;102746.88;6272168;22;20003;-88
2023/05/27 01:47:45;;;;;;;11.90;3.15;;;;;;;11.97;57.57;102748.53;6244791;22;20070;-88
2023/05/27 01:50:10;;;;;;;12.40;4.10;;;;;;;11.90;58.27;102743.38;6270643;22;20003;-88
2023/05/27 01:52:35;;;;;;;8.52;3.25;;;;;;;11.75;58.76;102740.00;6272482;22;20094;-88
2023/05/27 01:55:01;;;;;;;13.05;4.07;;;;;;;11.69;58.99;102748.03;6244277;22;20007;-88
2023/05/27 01:57:26;;;;;;;10.43;3.15;;;;;;;11.66;58.64;102736.63;6271548;22;20007;-88
2023/05/27 01:59:52;;;;;;;10.40;3.33;;;;;;;11.69;58.37;102731.25;6271904;22;20003;-88
2023/05/27 02:02:17;;;;;;;13.73;4.72;;;;;;;11.75;58.84;102747.09;6272764;22;20053;-88
2023/05/27 02:04:42;;;;;;;13.88;4.00;;;;;;;11.73;58.85;102738.28;6272271;22;19999;-88
2023/05/27 02:07:07;;;;;;;8.48;3.60;;;;;;;11.73;58.99;102739.13;6244589;22;20061;-88
2023/05/27 02:09:33;;;;;;;13.73;3.88;;;;;;;11.66;58.92;102733.97;6272053;22;20004;-88
2023/05/27 02:11:58;;;;;;;13.68;3.92;;;;;;;11.74;59.21;102746.19;6244606;22;20035;-88
2023/05/27 02:14:23;;;;;;;14.18;3.78;;;;;;;11.68;59.30;102738.34;6271329;22;20441;-88
2023/05/27 02:16:49;;;;;;;13.40;3.60;;;;;;;11.69;59.56;102742.72;6245293;22;20000;-87
2023/05/27 02:19:15;;;;;;;11.73;3.42;;;;;;;11.68;58.98;102737.47;6271793;22;20053;-88
2023/05/27 02:21:40;;;;;;;11.00;3.65;;;;;;;11.71;59.20;102743.59;6244891;22;20083;-88
2023/05/27 02:24:06;;;;;;;8.20;3.53;;;;;;;11.70;59.26;102749.81;6272153;22;20137;-89
2023/05/27 02:26:31;;;;;;;13.60;3.78;;;;;;;11.55;59.28;102735.88;6272248;22;20054;-89
2023/05/27 02:28:56;;;;;;;12.05;4.10;;;;;;;11.57;59.78;102756.16;6271722;22;20015;-88
2023/05/27 02:31:22;;;;;;;9.80;4.28;;;;;;;11.52;59.36;102747.41;6272413;22;20031;-88
2023/05/27 02:33:47;;;;;;;9.90;3.25;;;;;;;11.56;60.13;102751.75;6272088;22;20004;-88
2023/05/27 02:36:13;;;;;;;10.52;3.58;;;;;;;11.45;60.17;102741.31;6245128;22;20434;-88
2023/05/27 02:38:38;;;;;;;13.75;3.50;;;;;;;11.49;59.73;102744.78;6271393;22;20053;-88
2023/05/27 02:41:04;;;;;;;10.50;3.95;;;;;;;11.40;60.37;102736.97;6244301;22;20014;-88
2023/05/27 02:43:29;;;;;;;9.52;3.72;;;;;;;11.44;60.19;102751.94;6271875;22;20004;-89
2023/05/27 02:45:54;;;;;;;11.93;3.75;;;;;;;11.46;60.35;102766.00;6245172;22;20053;-88
2023/05/27 02:48:20;;;;;;;13.73;5.47;;;;;;;11.35;60.79;102752.03;6244713;22;20009;-88
2023/05/27 02:50:45;;;;;;;10.55;4.03;;;;;;;11.43;60.38;102761.66;6272020;22;20004;-88
2023/05/27 02:53:10;;;;;;;7.40;3.42;;;;;;;11.45;60.66;102757.19;6244542;22;20023;-88
2023/05/27 02:55:36;;;;;;;9.82;3.83;;;;;;;11.45;60.87;102758.97;6244581;22;20313;-88
2023/05/27 02:58:02;;;;;;;10.60;4.05;;;;;;;11.37;60.42;102750.25;6244858;22;20003;-88
2023/05/27 03:00:27;;;;;;;9.00;3.72;;;;;;;11.37;60.82;102761.69;6243587;22;20007;-88
2023/05/27 03:02:53;;;;;;;8.70;3.55;;;;;;;11.34;61.00;102761.75;6242816;22;20542;-88
2023/05/27 03:05:18;;;;;;;12.35;4.18;;;;;;;11.28;60.99;102760.94;6271409;22;20031;-88
2023/05/27 03:07:43;;;;;;;15.93;4.20;;;;;;;11.22;60.72;102749.53;6271921;22;20007;-88
2023/05/27 03:10:09;;;;;;;10.90;3.30;;;;;;;11.27;60.83;102764.50;6244088;22;20010;-88
2023/05/27 03:12:34;;;;;;;10.57;3.97;;;;;;;11.26;60.78;102774.22;6243849;22;20038;-88
2023/05/27 03:15:00;;;;;;;10.45;3.50;;;;;;;11.20;60.60;102754.00;6270839;22;20003;-88
2023/05/27 03:17:26;;;;;;;7.80;3.78;;;;;;;11.14;60.60;102758.47;6243859;22;20022;-88
2023/05/27 03:19:52;;;;;;;10.30;3.60;;;;;;;11.21;61.07;102768.09;6246079;22;20000;-88
2023/05/27 03:22:17;;;;;;;13.05;4.20;;;;;;;11.25;60.91;102775.13;6245668;22;20095;-88
2023/05/27 03:24:43;;;;;;;8.82;3.78;;;;;;;11.16;60.99;102762.84;6273034;22;20378;-88
2023/05/27 03:27:08;;;;;;;11.77;4.22;;;;;;;11.19;61.33;102768.13;6244464;22;20000;-88
2023/05/27 03:29:33;;;;;;;16.88;4.47;;;;;;;11.20;61.02;102775.16;6272995;22;20013;-89
2023/05/27 03:31:59;;;;;;;11.52;4.18;;;;;;;11.03;60.93;102745.34;6246812;22;20031;-88
2023/05/27 03:34:25;;;;;;;18.15;4.20;;;;;;;10.98;61.41;102744.53;6246578;22;20446;-88
2023/05/27 03:36:50;;;;;;;9.15;4.13;;;;;;;10.92;61.87;102736.69;6246450;22;19999;-88
2023/05/27 03:39:16;;;;;;;16.05;4.22;;;;;;;10.94;61.86;102759.56;6245726;22;20090;-88
2023/05/27 03:41:42;;;;;;;16.13;3.80;;;;;;;10.82;62.23;102740.28;6272675;22;20394;-88
2023/05/27 03:44:08;;;;;;;15.73;4.20;;;;;;;10.83;62.47;102747.38;6245191;22;20003;-88
2023/05/27 03:46:34;;;;;;;15.43;4.90;;;;;;;10.84;62.45;102735.88;6272856;22;20030;-87
2023/05/27 03:48:59;;;;;;;14.05;5.00;;;;;;;10.89;62.85;102747.28;6272731;22;20004;-88
2023/05/27 03:51:25;;;;;;;14.88;4.55;;;;;;;10.86;62.62;102731.44;6245616;22;20335;-88
2023/05/27 03:53:50;;;;;;;14.95;4.35;;;;;;;10.89;62.70;102736.69;6245514;22;20013;-87
2023/05/27 03:56:16;;;;;;;16.50;4.35;;;;;;;10.85;62.90;102722.63;6272665;22;20118;-88
2023/05/27 03:58:41;;;;;;;10.40;4.32;;;;;;;10.88;62.55;102719.06;6244631;22;20019;-87
2023/05/27 04:01:06;;;;;;;12.93;4.70;;;;;;;10.97;62.52;102735.72;6272978;22;20077;-89
2023/05/27 04:03:32;;;;;;;12.43;4.78;;;;;;;10.91;62.64;102724.31;6246691;22;20043;-88
2023/05/27 04:05:58;;;;;;;12.50;4.53;;;;;;;10.86;62.45;102727.00;6273607;22;20340;-88
2023/05/27 04:08:25;;;;;;;11.80;4.30;;;;;;;10.87;63.31;102722.63;6245582;22;20003;-88
2023/05/27 04:10:51;;;;;;;12.45;4.88;;;;;;;10.96;62.78;102741.91;6272929;22;20453;-89
2023/05/27 04:13:16;;;;;;;15.85;4.55;;;;;;;10.94;62.51;102735.75;6246530;22;20004;-87
2023/05/27 04:15:42;;;;;;;13.32;4.07;;;;;;;10.93;62.79;102741.06;6271992;22;20007;-88
2023/05/27 04:18:07;;;;;;;13.52;4.50;;;;;;;10.83;63.23;102726.19;6245484;22;20054;-87
2023/05/27 04:20:41;;;;;;;9.25;4.43;;;;;;;10.88;63.26;102734.97;6246117;22;20003;-87
2023/05/27 04:23:07;;;;;;;11.55;4.22;;;;;;;10.83;63.10;102726.19;6245805;22;20081;-87
2023/05/27 04:25:34;;;;;;;15.23;5.75;;;;;;;10.91;63.73;102734.91;6271906;22;19999;-86
2023/05/27 04:28:03;;;;;;;14.45;4.90;;;;;;;10.91;63.63;102732.25;6244876;22;20470;-88
2023/05/27 04:30:29;;;;;;;13.48;4.40;;;;;;;10.83;63.95;102718.25;6244794;22;20004;-87
2023/05/27 04:32:54;;;;;;;13.30;4.80;;;;;;;10.86;63.68;102718.19;6272492;22;20023;-87
2023/05/27 04:35:21;;;;;;;14.70;4.85;;;;;;;10.93;63.89;102723.41;6272741;22;20006;-87
2023/05/27 04:37:47;;;;;;;13.95;4.43;;;;;;;10.96;63.51;102720.75;6245292;22;20487;-87
2023/05/27 04:40:13;;;;;;;17.60;4.25;;;;;;;11.00;63.36;102713.63;6245072;22;19999;-88
2023/05/27 04:42:39;;;;;;;17.48;5.25;;;;;;;11.10;63.36;102719.72;6273590;22;20361;-87
2023/05/27 04:45:09;;;;;;;9.52;4.13;;;;;;;11.10;63.06;102703.84;6272512;22;19999;-87
2023/05/27 04:47:37;;;;;;;9.75;4.40;;;;;;;11.16;63.18;102714.34;6273163;22;20374;-87
2023/05/27 04:50:03;;;;;;;16.30;4.78;;;;;;;11.15;63.19;102710.81;6244963;22;20454;-87
2023/05/27 04:52:36;;;;;;;15.82;4.32;;;;;;;11.27;63.61;102712.41;6273530;22;20090;-87
2023/05/27 04:55:04;;;;;;;12.82;5.95;;;;;;;11.26;63.15;102704.50;6273514;22;20065;-88
2023/05/27 04:57:30;;;;;;;20.42;5.55;;;;;;;11.31;62.98;102702.66;6272931;22;20412;-88
2023/05/27 05:00:13;;;;;;;24.17;5.40;;;;;;;11.31;63.35;102689.44;6244153;22;20007;-87
2023/05/27 05:02:39;;;;;;;11.77;4.28;;;;;;;11.35;63.84;102693.78;6246011;22;20003;-87
2023/05/27 05:05:08;;;;;;;17.38;5.45;;;;;;;11.40;63.41;102705.19;6273053;22;20004;-87
2023/05/27 05:07:35;;;;;;;15.82;5.35;;;;;;;11.45;63.21;102706.00;6273520;22;20505;-88
2023/05/27 05:10:00;;;;;;;16.13;5.03;;;;;;;11.42;63.30;102700.72;6271151;22;20003;-88
2023/05/27 05:12:26;;;;;;;21.02;5.13;;;;;;;11.39;63.45;102703.44;6273817;22;20010;-87
2023/05/27 05:14:51;;;;;;;18.23;5.25;;;;;;;11.49;63.73;102699.75;6270550;22;20038;-88
2023/05/27 05:17:17;;;;;;;11.07;4.65;;;;;;;11.61;64.14;102709.28;6243880;22;20025;-87
2023/05/27 05:19:43;;;;;;;15.18;5.65;;;;;;;11.67;63.00;102709.22;6243618;22;20031;-88
2023/05/27 05:22:10;;;;;;;18.65;5.32;;;;;;;11.57;63.58;102684.66;6246398;22;20026;-88
2023/05/27 05:24:36;;;;;;;14.18;4.88;;;;;;;11.74;62.92;102708.22;6271729;22;20027;-87
2023/05/27 05:27:01;;;;;;;13.60;4.78;;;;;;;11.77;63.08;102709.97;6272417;22;20026;-88
2023/05/27 05:29:26;;;;;;;15.38;5.40;;;;;;;11.66;63.14;102668.59;6271829;22;20079;-87
2023/05/27 05:31:51;;;;;;;15.70;5.05;;;;;;;11.92;62.80;102700.00;6244242;22;20391;-87
2023/05/27 05:34:17;;;;;;;17.88;5.47;;;;;;;11.86;62.87;102680.69;6272050;22;19999;-87
2023/05/27 05:36:42;;;;;;;18.25;5.15;;;;;;;12.00;63.40;102694.59;6271513;22;20309;-87
2023/05/27 05:39:07;;;;;;;15.70;5.15;;;;;;;11.99;62.40;102687.56;6271688;22;20053;-88
2023/05/27 05:41:33;;;;;;;12.40;5.53;;;;;;;12.07;62.52;102695.38;6268875;22;19999;-87
2023/05/27 05:43:58;;;;;;;14.82;5.10;;;;;;;12.07;62.40;102684.75;6244911;22;20527;-88
2023/05/27 05:46:23;;;;;;;14.38;5.57;;;;;;;12.22;63.54;102696.00;6244931;22;20105;-87
2023/05/27 05:48:52;;;;;;;13.98;5.45;;;;;;;12.25;62.40;102687.97;6244001;22;20042;-87
2023/05/27 05:51:17;;;;;;;17.75;5.97;;;;;;;12.27;61.99;102685.31;6272010;22;20042;-87
2023/05/27 05:53:42;;;;;;;13.30;5.78;;;;;;;12.30;63.10;102684.38;6272589;22;19996;-87
2023/05/27 05:56:08;;;;;;;18.67;5.95;;;;;;;12.37;62.13;102688.66;6244468;22;20076;-88
2023/05/27 05:58:33;;;;;;;14.60;5.32;;;;;;;12.37;61.44;102678.94;6272195;22;19999;-88
2023/05/27 06:00:58;;;;;;;15.48;5.80;;;;;;;12.46;61.65;102686.72;6271781;22;20035;-88
2023/05/27 06:03:24;;;;;;;11.90;4.78;;;;;;;12.48;63.08;102666.34;6271778;22;20015;-88
2023/05/27 06:05:49;;;;;;;13.70;5.63;;;;;;;12.69;62.89;102682.75;6271470;22;20010;-88
2023/05/27 06:08:14;;;;;;;14.65;5.95;;;;;;;12.80;61.91;102688.72;6271220;22;20004;-88
2023/05/27 06:10:39;;;;;;;14.35;5.40;;;;;;;12.85;61.69;102678.88;6244849;22;20041;-88
2023/05/27 06:13:05;;;;;;;13.25;5.35;;;;;;;12.92;61.60;102677.88;6272336;22;20431;-88
2023/05/27 06:15:30;;;;;;;16.17;6.30;;;;;;;12.98;60.73;102682.16;6243671;22;20007;-87
2023/05/27 06:17:56;;;;;;;12.93;4.25;;;;;;;13.04;61.23;102682.03;6244039;22;20014;-88
2023/05/27 06:20:22;;;;;;;17.38;5.68;;;;;;;13.14;60.63;102672.09;6271412;22;20008;-88
2023/05/27 06:22:47;;;;;;;11.77;5.57;;;;;;;13.19;60.71;102668.41;6244706;22;20027;-88
2023/05/27 06:25:13;;;;;;;12.05;4.97;;;;;;;13.40;60.09;102675.09;6244480;22;20086;-88
2023/05/27 06:27:38;;;;;;;16.42;6.20;;;;;;;13.62;60.41;102664.84;6244556;22;20053;-89
2023/05/27 06:30:05;;;;;;;15.00;5.90;;;;;;;13.80;60.74;102663.50;6271121;22;20003;-88
2023/05/27 06:32:30;;;;;;;16.10;5.32;;;;;;;13.94;59.51;102668.47;6271842;22;20435;-89
2023/05/27 06:34:56;;;;;;;17.58;5.97;;;;;;;14.06;58.57;102673.50;6270729;22;20007;-88
2023/05/27 06:37:21;;;;;;;20.08;6.32;;;;;;;14.15;58.04;102669.75;6244757;22;20031;-88
2023/05/27 06:39:46;;;;;;;12.70;5.03;;;;;;;14.28;58.15;102666.72;6270646;22;20026;-89
2023/05/27 06:42:13;;;;;;;16.88;6.10;;;;;;;14.36;58.26;102647.00;6272537;22;20087;-89
2023/05/27 06:44:38;;;;;;;15.48;5.63;;;;;;;14.57;59.56;102653.56;6271723;22;20100;-89
2023/05/27 06:47:03;;;;;;;16.55;6.30;;;;;;;14.80;57.83;102659.13;6271886;22;20000;-88
2023/05/27 06:49:29;;;;;;;16.23;7.43;;;;;;;14.83;56.75;102648.38;6271249;22;20007;-88
2023/05/27 06:51:54;;;;;;;21.17;5.80;;;;;;;15.03;56.89;102651.31;6271982;22;20035;-88
2023/05/27 06:54:20;;;;;;;16.05;5.45;;;;;;;15.20;55.47;102645.50;6246849;22;20010;-88
2023/05/27 06:56:45;;;;;;;16.58;6.20;;;;;;;15.39;56.25;102648.47;6272838;22;20000;-88
2023/05/27 06:59:11;;;;;;;15.07;5.85;;;;;;;15.57;56.21;102641.66;6246082;22;20007;-88
2023/05/27 07:01:36;;;;;;;14.43;5.55;;;;;;;15.74;55.65;102646.47;6273236;22;20014;-88
2023/05/27 07:04:01;;;;;;;17.08;5.88;;;;;;;15.87;55.36;102652.28;6273029;22;20011;-89
2023/05/27 07:06:27;;;;;;;21.90;6.22;;;;;;;15.97;57.16;102651.91;6273131;22;20004;-88
2023/05/27 07:08:52;;;;;;;12.30;6.28;;;;;;;16.07;54.49;102642.66;6273094;22;20000;-88
2023/05/27 07:11:18;;;;;;;13.70;5.68;;;;;;;16.33;54.37;102640.91;6273369;22;20495;-88
2023/05/27 07:13:43;;;;;;;19.25;6.13;;;;;;;16.29;53.76;102636.59;6273917;22;20450;-87
2023/05/27 07:16:08;;;;;;;14.55;5.50;;;;;;;16.43;53.95;102642.31;6271723;22;20011;-88
2023/05/27 07:18:33;;;;;;;10.90;5.47;;;;;;;16.39;52.76;102643.34;6272607;22;20034;-88
2023/05/27 07:20:59;;;;;;;17.25;6.07;;;;;;;16.34;54.85;102637.31;6272671;22;20008;-88
2023/05/27 07:23:24;;;;;;;19.88;7.13;;;;;;;16.26;53.68;102642.03;6245454;22;19999;-87
2023/05/27 07:25:50;;;;;;;17.65;6.38;;;;;;;16.32;54.14;102645.38;6273954;22;19999;-87
2023/05/27 07:28:15;;;;;;;16.95;6.18;;;;;;;16.43;52.81;102644.97;6271855;22;20416;-88
2023/05/27 07:30:41;;;;;;;20.60;5.80;;;;;;;16.85;52.65;102647.03;6273800;22;20060;-86
2023/05/27 07:33:06;;;;;;;17.77;6.00;;;;;;;17.35;50.95;102636.19;6276034;22;20002;-88
2023/05/27 07:35:31;;;;;;;20.25;6.32;;;;;;;18.24;49.16;102652.13;6245412;22;20038;-88
2023/05/27 07:37:56;;;;;;;17.35;6.95;;;;;;;18.72;47.82;102640.19;6248570;22;19999;-88
2023/05/27 07:40:22;;;;;;;20.60;6.13;;;;;;;19.35;46.78;102631.84;6276498;22;20024;-88
2023/05/27 07:42:47;;;;;;;13.02;6.00;;;;;;;19.95;45.07;102627.09;6274028;22;20007;-89
2023/05/27 07:45:13;;;;;;;15.63;5.90;;;;;;;20.31;44.84;102626.13;6244996;22;20011;-89
2023/05/27 07:47:38;;;;;;;15.65;5.75;;;;;;;20.51;44.91;102622.41;6271690;22;20324;-88
2023/05/27 07:50:04;;;;;;;17.42;5.78;;;;;;;20.91;42.55;102625.63;6272913;22;20332;-89
2023/05/27 07:52:29;;;;;;;11.65;5.53;;;;;;;21.25;41.80;102621.91;6272767;22;20012;-88
2023/05/27 07:54:56;;;;;;;14.15;5.25;;;;;;;21.50;42.80;102610.66;6274300;22;20003;-88
2023/05/27 07:57:21;;;;;;;14.98;5.65;;;;;;;21.48;41.82;102616.09;6273477;22;20484;-89
2023/05/27 07:59:46;;;;;;;13.27;5.30;;;;;;;21.90;39.84;102615.41;6271757;22;19999;-88
2023/05/27 08:02:12;;;;;;;14.85;5.60;;;;;;;22.29;39.16;102610.41;6245718;22;20373;-89
2023/05/27 08:04:37;;;;;;;15.98;6.03;;;;;;;22.32;38.98;102608.38;6271790;22;20019;-89
2023/05/27 08:07:02;;;;;;;16.05;5.75;;;;;;;22.44;38.54;102608.63;6273449;22;20400;-89
2023/05/27 08:09:28;;;;;;;16.33;6.30;;;;;;;22.27;39.22;102602.41;6272739;22;20031;-88
2023/05/27 08:11:53;;;;;;;16.88;6.40;;;;;;;22.56;37.76;102605.13;6274364;22;20003;-89
2023/05/27 08:14:20;;;;;;;11.82;5.30;;;;;;;23.26;38.63;102611.41;6273532;22;20004;-89
2023/05/27 08:16:45;;;;;;;20.38;6.10;;;;;;;23.19;37.60;102593.06;6244661;22;20054;-89
2023/05/27 08:19:11;;;;;;;14.63;5.20;;;;;;;23.86;37.17;102589.41;6272683;22;20008;-89
2023/05/27 08:21:36;;;;;;;14.35;5.90;;;;;;;24.38;35.71;102574.97;6273344;22;20008;-89
2023/05/27 08:24:05;;;;;;;12.85;6.28;;;;;;;24.85;34.92;102583.34;6273749;22;20004;-90
2023/05/27 08:26:30;;;;;;;16.98;5.65;;;;;;;25.37;34.06;102569.56;6245740;22;20000;-90
2023/05/27 08:28:55;;;;;;;15.93;5.65;;;;;;;25.65;33.16;102570.16;6272005;22;19999;-91
2023/05/27 08:31:21;;;;;;;14.95;5.28;;;;;;;25.94;31.88;102570.66;6273527;22;20006;-91
2023/05/27 08:33:46;;;;;;;14.50;5.68;;;;;;;26.13;31.37;102570.94;6245591;22;20397;-91
2023/05/27 08:36:11;;;;;;;15.15;5.93;;;;;;;25.88;32.07;102549.41;6245160;22;20003;-91
2023/05/27 08:38:37;;;;;;;23.83;5.60;;;;;;;25.88;30.74;102552.13;6272267;22;20007;-90
2023/05/27 08:41:02;;;;;;;18.08;5.88;;;;;;;26.15;31.33;102549.97;6271991;22;20331;-90
2023/05/27 08:43:28;;;;;;;20.23;6.10;;;;;;;26.16;30.98;102537.28;6274016;22;20082;-90
2023/05/27 08:45:54;;;;;;;14.98;5.47;;;;;;;26.36;31.77;102549.25;6273251;22;20224;-90
2023/05/27 08:48:19;;;;;;;12.43;6.00;;;;;;;27.00;31.61;102532.28;6273490;22;20003;-90
2023/05/27 08:50:45;;;;;;;14.73;6.30;;;;;;;27.32;31.21;102540.47;6272720;22;20070;-90
2023/05/27 08:53:12;;;;;;;14.68;6.28;;;;;;;27.06;30.41;102531.81;6271233;22;20011;-90
2023/05/27 08:55:39;;;;;;;18.48;6.65;;;;;;;26.62;30.53;102530.88;6271653;22;20004;-90
2023/05/27 08:58:05;;;;;;;14.50;5.70;;;;;;;26.04;30.47;102535.56;6272016;22;20003;-90
2023/05/27 09:00:30;;;;;;;15.60;5.90;;;;;;;25.97;32.28;102545.13;6243296;22;20011;-90
2023/05/27 09:02:59;;;;;;;15.85;6.07;;;;;;;25.97;32.18;102539.72;6269616;22;20095;-90
2023/05/27 09:05:25;;;;;;;16.55;5.93;;;;;;;25.78;33.16;102530.31;6241942;22;20395;-90
2023/05/27 09:07:51;;;;;;;14.48;6.00;;;;;;;25.71;32.17;102523.63;6271339;22;20376;-91
2023/05/27 09:10:16;;;;;;;16.17;6.38;;;;;;;26.08;31.77;102528.91;6243555;22;20130;-90
2023/05/27 09:12:45;;;;;;;14.50;5.68;;;;;;;26.69;32.33;102524.84;6245121;22;20036;-89
2023/05/27 09:15:11;;;;;;;15.60;6.53;;;;;;;26.56;31.76;102517.84;6270332;22;20404;-89
2023/05/27 09:17:41;;;;;;;15.07;6.13;;;;;;;26.08;32.16;102513.50;6244554;22;20049;-90
2023/05/27 09:20:10;;;;;;;13.57;6.63;;;;;;;25.63;32.38;102512.50;6270799;22;20097;-89
2023/05/27 09:22:37;;;;;;;15.43;6.07;;;;;;;25.21;32.06;102511.25;6272119;22;20004;-89
2023/05/27 09:25:03;;;;;;;17.23;6.28;;;;;;;25.15;31.57;102516.16;6243394;22;20262;-89
2023/05/27 09:27:29;;;;;;;14.05;5.97;;;;;;;25.23;33.54;102502.06;6269847;22;20114;-89
2023/05/27 09:29:55;;;;;;;19.90;6.75;;;;;;;25.45;33.14;102512.09;6270225;22;20004;-89
2023/05/27 09:32:30;;;;;;;17.90;6.03;;;;;;;25.60;33.12;102507.31;6244947;22;20316;-90
2023/05/27 09:34:56;;;;;;;14.40;6.25;;;;;;;25.41;33.29;102494.34;6271999;22;20115;-90
2023/05/27 09:37:34;;;;;;;13.40;5.35;;;;;;;25.71;33.31;102496.53;6244439;22;20007;-91
2023/05/27 09:40:20;;;;;;;17.55;5.97;;;;;;;26.29;33.90;102491.91;6243021;22;20003;-90
2023/05/27 09:42:49;;;;;;;14.57;5.93;;;;;;;25.54;32.67;102496.97;6270741;22;20083;-91
2023/05/27 09:45:25;;;;;;;14.18;5.82;;;;;;;25.53;34.07;102497.97;6244463;22;20435;-92
2023/05/27 09:47:52;;;;;;;17.35;5.88;;;;;;;25.66;32.02;102486.06;6273474;22;20081;-91
2023/05/27 09:50:20;;;;;;;14.60;5.55;;;;;;;26.06;32.67;102491.06;6244818;22;20041;-91
2023/05/27 09:52:47;;;;;;;17.73;6.00;;;;;;;26.39;32.60;102486.63;6244093;22;20016;-90
2023/05/27 09:55:13;;;;;;;13.32;5.57;;;;;;;26.88;30.31;102483.47;6243237;22;20003;-91
2023/05/27 09:57:40;;;;;;;29.52;7.07;;;;;;;27.00;31.38;102469.84;6270773;22;20091;-91
2023/05/27 10:00:11;;;;;;;18.02;5.85;;;;;;;27.07;31.33;102462.94;6269242;22;20038;-91
2023/05/27 10:02:38;;;;;;;17.95;6.25;;;;;;;27.16;31.44;102470.31;6271304;22;20004;-91
2023/05/27 10:05:07;;;;;;;13.15;5.45;;;;;;;27.31;31.82;102469.00;6274382;22;19999;-90
2023/05/27 10:07:39;;;;;;;14.13;5.93;;;;;;;27.28;29.68;102461.16;6278059;22;20530;-91
2023/05/27 10:10:11;;;;;;;18.95;5.70;;;;;;;27.34;30.41;102466.03;6270386;22;20034;-91
2023/05/27 10:12:37;;;;;;;18.20;7.15;;;;;;;27.08;31.20;102448.34;6269187;22;20516;-91
2023/05/27 10:15:03;;;;;;;25.85;9.40;;;;;;;27.62;30.59;102460.94;6240845;22;20004;-91
2023/05/27 10:17:53;;;;;;;18.55;6.97;;;;;;;27.46;31.11;102459.53;6267241;22;20379;-89
2023/05/27 10:20:29;;;;;;;16.88;5.93;;;;;;;27.56;31.04;102451.47;6270698;22;20012;-90
2023/05/27 10:22:56;;;;;;;17.15;6.18;;;;;;;27.54;29.78;102449.88;6269674;22;20003;-91
2023/05/27 10:25:22;;;;;;;15.45;5.65;;;;;;;27.03;29.33;102458.75;6240934;22;20008;-91
2023/05/27 10:27:48;;;;;;;14.10;6.85;;;;;;;26.82;30.89;102446.00;6243827;22;20495;-91
2023/05/27 10:30:15;;;;;;;17.63;6.28;;;;;;;26.81;31.98;102441.53;6242426;22;20011;-91
2023/05/27 10:32:50;;;;;;;14.32;6.35;;;;;;;27.26;30.27;102437.81;6242198;22;20011;-91
2023/05/27 10:35:18;;;;;;;53.03;31.65;;;;;;;27.40;29.10;102438.34;6269659;22;20008;-90
2023/05/27 10:37:43;;;;;;;61.30;36.40;;;;;;;27.36;29.62;102438.75;6242749;22;20039;-90
2023/05/27 10:40:09;;;;;;;28.17;14.25;;;;;;;26.77;29.03;102433.81;6268573;22;20442;-90
2023/05/27 10:42:35;;;;;;;20.13;7.65;;;;;;;26.19;30.82;102432.16;6270194;22;20086;-90
2023/05/27 10:45:10;;;;;;;24.17;10.88;;;;;;;26.23;30.79;102442.75;6243231;22;20003;-91
2023/05/27 10:47:37;;;;;;;32.67;13.35;;;;;;;26.14;30.77;102431.66;6242384;22;20007;-91
2023/05/27 10:50:13;;;;;;;48.30;23.95;;;;;;;26.51;31.28;102436.81;6242310;22;20090;-90
2023/05/27 10:52:39;;;;;;;114.88;49.65;;;;;;;26.88;29.56;102428.34;6242957;22;20020;-90
2023/05/27 10:55:08;;;;;;;66.13;28.90;;;;;;;27.25;28.99;102417.09;6243020;22;20011;-90
2023/05/27 10:57:34;;;;;;;26.52;9.60;;;;;;;27.61;28.00;102411.16;6243481;22;20420;-90
2023/05/27 11:00:08;;;;;;;14.13;4.97;;;;;;;28.20;28.00;102415.00;6269700;22;20004;-90
2023/05/27 11:02:36;;;;;;;17.92;6.57;;;;;;;27.54;27.33;102418.13;6243398;22;20007;-90
2023/05/27 11:05:08;;;;;;;13.68;5.32;;;;;;;27.49;28.40;102405.94;6243216;22;20320;-90
2023/05/27 11:07:36;;;;;;;11.77;4.63;;;;;;;27.74;28.02;102407.38;6270187;22;20007;-89
2023/05/27 11:10:02;;;;;;;12.48;4.25;;;;;;;28.05;28.61;102403.66;6270207;22;20420;-90
2023/05/27 11:12:27;;;;;;;70.55;32.42;;;;;;;28.59;26.44;102390.66;6271126;22;20042;-91
2023/05/27 11:14:54;;;;;;;16.92;6.75;;;;;;;29.06;26.12;102394.41;6270857;22;20010;-90